GMML

Details ICAO GMML (EUN)
Name HASSAN I
Region Morocco
Timezone Africa/El_Aaiun (UTC+0.0)
Plans Departing 42
Arriving 24
Stats Elevation 207 ft / 63 m (AMSL)
Location 27.143650° -13.225399°
Runways 2
Magnetic Variation 3.958° W
Sunrise 2017-12-11 07:33:47 UTC / 2017-12-11 07:33:47 Local
Sunset 2017-12-11 18:01:29 UTC / 2017-12-11 18:01:29 Local
Advertisement - Login to hide

Runways

ID Width Length Bearing (true) Bearing (mag) Surface Threshold Offset Overrun Length
02 148 ft / 45 m 8,890 ft / 2,710 m 16.42° 20.38° Asphalt 0 ft / 0 m 200 ft / 61 m
04 148 ft / 45 m 8,221 ft / 2,506 m 31.58° 35.54° Asphalt 0 ft / 0 m 0 ft / 0 m
20 148 ft / 45 m 8,890 ft / 2,710 m 196.43° 200.39° Asphalt 0 ft / 0 m 200 ft / 61 m
22 148 ft / 45 m 8,221 ft / 2,506 m 211.59° 215.55° Asphalt 0 ft / 0 m 658 ft / 201 m

Map

Weather


0- 5 10 15 20 25 30 35+ Temperature / ° C

Clouds and Precipitation
Forecast for 2017-12-11 18:00 UTC. Updated 2 hours ago

Ground ~20,000 ft ~40,000 ft Winds

METAR

GMML 111500Z 25012KT 8000 BKN023 SCT030 21/14 Q1015 NOSIG

TAF

TAF GMML 111100Z 1112/1218 VRB02KT 8000 SCT016 SCT200 BECMG 1114/1116 25012KT TEMPO 1120/1206 RA BKN020TCU BKN050 PROB30 TEMPO 1212/1218 01015G25KT 3000 SA

Frequencies

Tower 131.10 MHz LAAYOUNE TWR
Approach 127.50 MHz LAAYOUNE APP
Warning: Do not use this data for real-world aviation or navigation. No guarantee of current accuracy is given.